< Typhoon 196215 1962 Season Typhoon 196217 >
Typhoon 196216 (WANDA)
General InformationTrack Information on Google Maps || Disaster Info.ResourceGoogle EarthGE AnimationAtom FeedGeoJSON
Detalied Best Track (Time Zone = UTC)
Year Month Day Hour Lat. Long. Pressure (hPa) Wind (kt) Class Image Chart
1962 8 25 06 11.4 143.9 1007 0 2 -- Chart
1962 8 25 12 11.7 143.2 1008 0 2 -- Chart
1962 8 25 18 11.8 142.5 1006 0 2 -- Chart
1962 8 26 00 11.9 141.4 1006 0 2 -- Chart
1962 8 26 06 12.1 140.3 1004 0 2 -- Chart
1962 8 26 12 12.4 139.3 1006 0 2 -- Chart
1962 8 26 18 12.8 138.4 1002 0 2 -- Chart
1962 8 27 00 13.2 137.1 1004 0 2 -- Chart
1962 8 27 06 13.5 136.0 1002 0 2 -- Chart
1962 8 27 12 14.3 134.7 1002 0 2 -- Chart
1962 8 27 18 15.0 133.5 1000 0 2 -- Chart
1962 8 28 00 15.8 132.9 1000 0 2 -- Chart
1962 8 28 06 16.3 132.0 998 0 9 -- Chart
1962 8 28 12 16.7 131.2 996 0 9 -- Chart
1962 8 28 18 17.2 130.4 994 0 9 -- Chart
1962 8 29 00 17.6 129.4 994 0 9 -- Chart
1962 8 29 06 18.2 127.8 990 0 9 -- Chart
1962 8 29 12 18.7 126.6 985 0 9 -- Chart
1962 8 29 18 19.0 125.4 980 0 9 -- Chart
1962 8 30 00 19.3 123.9 975 0 9 -- Chart
1962 8 30 06 19.6 122.5 975 0 9 -- Chart
1962 8 30 12 20.0 121.3 970 0 9 -- Chart
1962 8 30 18 20.4 120.3 970 0 9 -- Chart
1962 8 31 00 20.6 119.0 970 0 9 -- Chart
1962 8 31 06 20.5 117.5 970 0 9 -- Chart
1962 8 31 12 20.9 116.5 965 0 9 -- Chart
1962 8 31 18 21.5 115.6 960 0 9 -- Chart
1962 9 1 00 22.1 114.4 960 0 9 -- Chart
1962 9 1 06 22.5 113.5 970 0 9 -- Chart
1962 9 1 12 22.8 112.8 980 0 9 -- Chart
1962 9 1 18 23.0 112.3 988 0 2 -- Chart
1962 9 2 00 23.1 112.0 994 0 2 -- Chart
1962 9 2 06 23.0 111.6 996 0 2 -- Chart
1962 9 2 12 22.6 111.0 996 0 2 -- Chart
1962 9 2 18 22.4 110.6 998 0 2 -- Chart
1962 9 3 00 22.1 110.4 998 0 2 -- Chart
1962 9 3 06 22.0 110.0 998 0 2 -- Chart
1962 9 3 12 21.5 109.5 998 0 2 -- Chart
1962 9 3 18 21.0 109.0 998 0 2 -- Chart
1962 9 4 00 20.5 108.5 998 0 2 -- Chart
1962 9 4 06 20.1 108.0 996 0 2 -- Chart
1962 9 4 12 19.9 109.0 996 0 2 -- Chart
1962 9 4 18 19.7 109.6 998 0 2 -- Chart
Japan Meteorological Agency Best Track Data | Correction Date : 1989-06-01
< Typhoon 196215 1962 Season Typhoon 196217 >

Help